Time;durP1;ratioP1;P1;durP2;ratioP2;P2;SDS_P1;SDS_P2;PMS_P1;PMS_P2;Temp;Humidity;BMP_temperature;BMP_pressure;BME280_temperature;BME280_humidity;BME280_pressure;Samples;Min_cycle;Max_cycle;Signal;HPM_P1;HPM_P2
2023/06/20 00:00:51;;;;;;;11.02;5.93;;;;;;;;;;4989126;28;20031;-71
2023/06/20 00:03:16;;;;;;;8.30;5.55;;;;;;;;;;4991327;28;20034;-70
2023/06/20 00:05:42;;;;;;;9.23;5.85;;;;;;;;;;5008368;28;20036;-71
2023/06/20 00:08:08;;;;;;;8.60;6.07;;;;;;;;;;4998310;28;20982;-70
2023/06/20 00:10:33;;;;;;;11.55;6.88;;;;;;;;;;4998354;28;20286;-71
2023/06/20 00:12:59;;;;;;;10.32;6.63;;;;;;;;;;5012163;28;20145;-72
2023/06/20 00:15:25;;;;;;;13.07;6.20;;;;;;;;;;4996204;28;20041;-68
2023/06/20 00:17:51;;;;;;;9.15;6.05;;;;;;;;;;4994791;28;20030;-66
2023/06/20 00:20:16;;;;;;;10.63;6.18;;;;;;;;;;4997038;28;20032;-67
2023/06/20 00:22:41;;;;;;;10.43;6.65;;;;;;;;;;4997331;28;20042;-67
2023/06/20 00:25:07;;;;;;;13.32;7.50;;;;;;;;;;4980230;28;20548;-67
2023/06/20 00:27:32;;;;;;;9.98;6.90;;;;;;;;;;4994256;28;20044;-67
2023/06/20 00:29:57;;;;;;;9.80;7.05;;;;;;;;;;4997045;28;20069;-66
2023/06/20 00:32:23;;;;;;;9.90;7.15;;;;;;;;;;4997572;28;20040;-67
2023/06/20 00:34:48;;;;;;;8.82;6.35;;;;;;;;;;4995316;28;20038;-66
2023/06/20 00:37:14;;;;;;;11.05;7.07;;;;;;;;;;5007974;28;22820;-66
2023/06/20 00:39:39;;;;;;;12.07;7.63;;;;;;;;;;4995853;28;20466;-66
2023/06/20 00:42:05;;;;;;;12.63;7.28;;;;;;;;;;4991993;28;20037;-66
2023/06/20 00:44:33;;;;;;;9.40;7.43;;;;;;;;;;5000424;28;20589;-66
2023/06/20 00:46:58;;;;;;;10.52;7.28;;;;;;;;;;5000294;28;20069;-67
2023/06/20 00:49:23;;;;;;;9.27;7.03;;;;;;;;;;4999879;28;20160;-66
2023/06/20 00:51:49;;;;;;;11.88;7.82;;;;;;;;;;4999399;28;20055;-66
2023/06/20 00:54:15;;;;;;;10.85;7.30;;;;;;;;;;4999062;28;20029;-67
2023/06/20 00:56:41;;;;;;;9.45;7.18;;;;;;;;;;4999650;28;20100;-67
2023/06/20 00:59:07;;;;;;;11.95;7.35;;;;;;;;;;5001297;28;22418;-68
2023/06/20 01:01:32;;;;;;;11.40;7.65;;;;;;;;;;4999571;28;20033;-67
2023/06/20 01:03:58;;;;;;;11.38;7.88;;;;;;;;;;4998442;28;20044;-66
2023/06/20 01:06:42;;;;;;;10.75;7.47;;;;;;;;;;4999338;28;20049;-67
2023/06/20 01:09:16;;;;;;;11.05;7.80;;;;;;;;;;4997693;28;20051;-66
2023/06/20 01:11:45;;;;;;;12.60;8.10;;;;;;;;;;4996633;28;20622;-66
2023/06/20 01:14:29;;;;;;;11.70;8.00;;;;;;;;;;4996172;28;20034;-66
2023/06/20 01:17:00;;;;;;;10.35;7.20;;;;;;;;;;4997240;28;20116;-67
2023/06/20 01:19:44;;;;;;;11.27;7.95;;;;;;;;;;4990829;28;20037;-66
2023/06/20 01:22:16;;;;;;;11.27;7.72;;;;;;;;;;4999747;28;20186;-66
2023/06/20 01:24:46;;;;;;;11.35;8.02;;;;;;;;;;4998381;28;22318;-66
2023/06/20 01:27:15;;;;;;;12.68;7.95;;;;;;;;;;4997934;28;21323;-66
2023/06/20 01:30:01;;;;;;;11.00;8.07;;;;;;;;;;5009260;28;20045;-66
2023/06/20 01:32:27;;;;;;;10.63;8.15;;;;;;;;;;4999299;28;20041;-68
2023/06/20 01:34:56;;;;;;;9.73;7.70;;;;;;;;;;4999402;28;20034;-66
2023/06/20 01:37:22;;;;;;;12.57;7.18;;;;;;;;;;4997089;28;20036;-66
2023/06/20 01:39:52;;;;;;;11.38;7.38;;;;;;;;;;4995405;28;20068;-67
2023/06/20 01:42:21;;;;;;;13.05;7.88;;;;;;;;;;4999650;28;20100;-68
2023/06/20 01:44:46;;;;;;;10.38;7.95;;;;;;;;;;4998600;28;20419;-67
2023/06/20 01:47:15;;;;;;;10.07;7.35;;;;;;;;;;5014472;28;20038;-67
2023/06/20 01:49:42;;;;;;;9.75;7.75;;;;;;;;;;4998929;28;20041;-66
2023/06/20 01:52:10;;;;;;;10.07;7.30;;;;;;;;;;4980504;28;20041;-67
2023/06/20 01:54:36;;;;;;;20.00;6.80;;;;;;;;;;4997424;28;20034;-67
2023/06/20 01:57:02;;;;;;;11.02;7.03;;;;;;;;;;5013361;28;20038;-65
2023/06/20 01:59:28;;;;;;;9.63;6.70;;;;;;;;;;4999760;28;20667;-68
2023/06/20 02:01:54;;;;;;;8.38;6.88;;;;;;;;;;4996944;28;20060;-66
2023/06/20 02:04:21;;;;;;;9.88;6.93;;;;;;;;;;4996843;28;20053;-66
2023/06/20 02:06:46;;;;;;;9.70;6.88;;;;;;;;;;4998544;28;20059;-66
2023/06/20 02:09:13;;;;;;;10.82;7.20;;;;;;;;;;4995431;28;20044;-66
2023/06/20 02:11:38;;;;;;;12.45;7.82;;;;;;;;;;4998271;28;20037;-66
2023/06/20 02:14:06;;;;;;;10.43;7.03;;;;;;;;;;4998604;28;20048;-66
2023/06/20 02:16:34;;;;;;;10.15;7.25;;;;;;;;;;4998029;28;20087;-66
2023/06/20 02:18:59;;;;;;;9.32;6.88;;;;;;;;;;5009156;28;20398;-67
2023/06/20 02:21:35;;;;;;;11.23;7.57;;;;;;;;;;4997471;28;20037;-66
2023/06/20 02:24:01;;;;;;;10.27;7.13;;;;;;;;;;4998509;28;20672;-66
2023/06/20 02:26:29;;;;;;;11.43;7.30;;;;;;;;;;5008079;28;20038;-66
2023/06/20 02:28:57;;;;;;;11.63;7.30;;;;;;;;;;4998836;28;20064;-66
2023/06/20 02:31:24;;;;;;;10.75;7.57;;;;;;;;;;4999382;28;22510;-67
2023/06/20 02:33:51;;;;;;;10.43;7.47;;;;;;;;;;4996512;28;20153;-66
2023/06/20 02:36:17;;;;;;;11.55;7.65;;;;;;;;;;4998071;28;20041;-70
2023/06/20 02:38:45;;;;;;;11.85;8.02;;;;;;;;;;4996924;28;20045;-70
2023/06/20 02:41:13;;;;;;;12.70;7.20;;;;;;;;;;4998350;28;20034;-70
2023/06/20 02:43:38;;;;;;;12.30;7.20;;;;;;;;;;4998115;28;20037;-70
2023/06/20 02:46:09;;;;;;;13.63;7.93;;;;;;;;;;5012904;28;20040;-70
2023/06/20 02:49:01;;;;;;;11.80;8.33;;;;;;;;;;4998970;28;20022;-73
2023/06/20 02:51:31;;;;;;;11.48;7.22;;;;;;;;;;4995915;28;20038;-71
2023/06/20 02:54:17;;;;;;;12.02;7.95;;;;;;;;;;4997793;28;20065;-71
2023/06/20 02:56:45;;;;;;;11.75;7.53;;;;;;;;;;4998011;28;20496;-73
2023/06/20 02:59:12;;;;;;;10.32;7.78;;;;;;;;;;4998214;28;20103;-71
2023/06/20 03:01:38;;;;;;;10.10;7.78;;;;;;;;;;4996446;28;20034;-72
2023/06/20 03:04:04;;;;;;;11.80;8.05;;;;;;;;;;4999035;28;20140;-71
2023/06/20 03:06:32;;;;;;;12.80;7.63;;;;;;;;;;4997849;28;20026;-72
2023/06/20 03:09:00;;;;;;;11.90;8.20;;;;;;;;;;4998840;28;20042;-71
2023/06/20 03:11:25;;;;;;;10.27;8.15;;;;;;;;;;4994467;28;20172;-71
2023/06/20 03:13:51;;;;;;;9.50;7.78;;;;;;;;;;4999459;28;20033;-72
2023/06/20 03:16:18;;;;;;;10.40;7.57;;;;;;;;;;4997291;28;20540;-71
2023/06/20 03:18:47;;;;;;;13.63;8.13;;;;;;;;;;4997410;28;20033;-71
2023/06/20 03:21:12;;;;;;;12.00;7.20;;;;;;;;;;4999143;28;20077;-71
2023/06/20 03:23:38;;;;;;;12.82;7.88;;;;;;;;;;4996743;28;20120;-72
2023/06/20 03:26:04;;;;;;;10.07;7.47;;;;;;;;;;4997724;28;20200;-72
2023/06/20 03:28:29;;;;;;;11.15;8.40;;;;;;;;;;5012408;28;20038;-71
2023/06/20 03:30:55;;;;;;;11.55;8.15;;;;;;;;;;4999500;28;20049;-73
2023/06/20 03:33:22;;;;;;;12.10;8.13;;;;;;;;;;4998120;28;20148;-73
2023/06/20 03:35:48;;;;;;;14.40;8.23;;;;;;;;;;4996982;28;20061;-73
2023/06/20 03:38:13;;;;;;;10.65;8.27;;;;;;;;;;4994769;28;20056;-70
2023/06/20 03:40:38;;;;;;;11.85;8.10;;;;;;;;;;5003893;28;20033;-72
2023/06/20 03:43:04;;;;;;;12.07;8.30;;;;;;;;;;4998393;28;20406;-71
2023/06/20 03:45:29;;;;;;;9.77;7.53;;;;;;;;;;4998995;28;20033;-72
2023/06/20 03:47:54;;;;;;;12.18;8.05;;;;;;;;;;4996714;28;20060;-71
2023/06/20 03:50:20;;;;;;;12.23;8.07;;;;;;;;;;4994966;28;20128;-72
2023/06/20 03:52:47;;;;;;;11.95;8.30;;;;;;;;;;4997547;28;20087;-71
2023/06/20 03:55:13;;;;;;;12.63;7.97;;;;;;;;;;4997156;28;20045;-72
2023/06/20 03:57:38;;;;;;;10.82;7.88;;;;;;;;;;4997249;28;20053;-75
2023/06/20 04:00:12;;;;;;;10.93;7.88;;;;;;;;;;4996661;28;20185;-71
2023/06/20 04:02:41;;;;;;;11.50;8.73;;;;;;;;;;4995359;28;20043;-73
2023/06/20 04:05:10;;;;;;;11.00;8.00;;;;;;;;;;4995734;28;20890;-72
2023/06/20 04:07:35;;;;;;;12.13;8.15;;;;;;;;;;4999037;28;20041;-71
2023/06/20 04:10:01;;;;;;;11.50;8.50;;;;;;;;;;4997484;28;20049;-71
2023/06/20 04:12:26;;;;;;;10.88;8.43;;;;;;;;;;4999406;28;20116;-73
2023/06/20 04:14:53;;;;;;;12.35;8.88;;;;;;;;;;4998431;28;20034;-71
2023/06/20 04:17:18;;;;;;;11.18;8.50;;;;;;;;;;5001096;28;20045;-71
2023/06/20 04:19:44;;;;;;;13.68;8.65;;;;;;;;;;5012320;28;20682;-72
2023/06/20 04:22:09;;;;;;;14.20;9.25;;;;;;;;;;5006851;28;20042;-73
2023/06/20 04:24:36;;;;;;;12.23;8.68;;;;;;;;;;4991140;28;21020;-73
2023/06/20 04:27:03;;;;;;;12.70;8.63;;;;;;;;;;5000273;28;20719;-72
2023/06/20 04:29:29;;;;;;;12.75;8.80;;;;;;;;;;4996177;28;20048;-73
2023/06/20 04:31:54;;;;;;;10.88;8.27;;;;;;;;;;4996896;28;20036;-73
2023/06/20 04:34:23;;;;;;;14.25;8.77;;;;;;;;;;4999077;28;20033;-73
2023/06/20 04:36:48;;;;;;;12.25;9.18;;;;;;;;;;4995740;28;20065;-72
2023/06/20 04:39:14;;;;;;;11.50;8.32;;;;;;;;;;4997388;28;20129;-72
2023/06/20 04:41:41;;;;;;;9.55;8.30;;;;;;;;;;4998097;28;20037;-70
2023/06/20 04:44:06;;;;;;;12.43;8.80;;;;;;;;;;4997967;28;20041;-72
2023/06/20 04:46:32;;;;;;;12.02;8.73;;;;;;;;;;4996389;28;20086;-72
2023/06/20 04:48:57;;;;;;;12.85;9.02;;;;;;;;;;4995722;28;20044;-74
2023/06/20 04:51:25;;;;;;;10.98;8.57;;;;;;;;;;4997793;28;20886;-74
2023/06/20 04:53:50;;;;;;;12.38;9.27;;;;;;;;;;4996710;28;20119;-72
2023/06/20 04:56:16;;;;;;;12.00;8.55;;;;;;;;;;4998500;28;20025;-69
2023/06/20 04:58:41;;;;;;;12.65;9.35;;;;;;;;;;4997047;28;20152;-69
2023/06/20 05:01:06;;;;;;;13.02;8.65;;;;;;;;;;5009728;28;20030;-67
2023/06/20 05:03:35;;;;;;;11.77;9.45;;;;;;;;;;4997232;28;20085;-69
2023/06/20 05:06:03;;;;;;;13.05;9.38;;;;;;;;;;4998027;28;20034;-67
2023/06/20 05:08:28;;;;;;;11.68;8.40;;;;;;;;;;4998504;28;20038;-68
2023/06/20 05:10:53;;;;;;;14.10;8.75;;;;;;;;;;4993959;28;20133;-68
2023/06/20 05:13:19;;;;;;;12.68;9.20;;;;;;;;;;4999361;28;22008;-68
2023/06/20 05:15:44;;;;;;;15.00;9.30;;;;;;;;;;4995791;28;20076;-66
2023/06/20 05:18:09;;;;;;;13.95;9.50;;;;;;;;;;4996213;28;20041;-69
2023/06/20 05:20:35;;;;;;;13.80;9.20;;;;;;;;;;4995992;28;20623;-66
2023/06/20 05:23:00;;;;;;;13.02;8.82;;;;;;;;;;4996589;28;20122;-66
2023/06/20 05:25:25;;;;;;;12.73;9.30;;;;;;;;;;4989813;28;20417;-68
2023/06/20 05:27:50;;;;;;;12.95;9.07;;;;;;;;;;4993095;28;20584;-66
2023/06/20 05:30:16;;;;;;;16.20;9.00;;;;;;;;;;5000859;28;20053;-66
2023/06/20 05:32:41;;;;;;;14.10;9.10;;;;;;;;;;4999895;28;20036;-67
2023/06/20 05:35:07;;;;;;;12.85;8.95;;;;;;;;;;5001180;28;20537;-67
2023/06/20 05:37:33;;;;;;;11.02;8.73;;;;;;;;;;4987496;28;20047;-66
2023/06/20 05:39:58;;;;;;;11.48;8.25;;;;;;;;;;4982794;28;20044;-66
2023/06/20 05:42:23;;;;;;;13.05;8.57;;;;;;;;;;4999368;28;20044;-68
2023/06/20 05:44:49;;;;;;;11.98;8.35;;;;;;;;;;5000909;28;20053;-67
2023/06/20 05:47:20;;;;;;;10.93;8.57;;;;;;;;;;5000742;28;20037;-66
2023/06/20 05:49:46;;;;;;;14.90;8.35;;;;;;;;;;5000216;28;20053;-67
2023/06/20 05:52:11;;;;;;;14.00;8.52;;;;;;;;;;5001625;28;20148;-66
2023/06/20 05:54:37;;;;;;;11.00;8.60;;;;;;;;;;5003800;28;20493;-67
2023/06/20 05:57:02;;;;;;;14.13;9.07;;;;;;;;;;5000959;28;20096;-68
2023/06/20 05:59:27;;;;;;;11.95;8.63;;;;;;;;;;4998597;28;20041;-69
2023/06/20 06:01:53;;;;;;;13.68;9.05;;;;;;;;;;5000902;28;20038;-65
2023/06/20 06:04:18;;;;;;;12.18;8.50;;;;;;;;;;4999563;28;20060;-65
2023/06/20 06:06:45;;;;;;;10.75;8.73;;;;;;;;;;4998850;28;20409;-65
2023/06/20 06:09:14;;;;;;;13.82;9.00;;;;;;;;;;4999913;28;20069;-66
2023/06/20 06:11:40;;;;;;;12.57;8.57;;;;;;;;;;4999770;28;20038;-66
2023/06/20 06:14:05;;;;;;;14.48;9.02;;;;;;;;;;5000209;28;20049;-66
2023/06/20 06:16:33;;;;;;;14.25;9.00;;;;;;;;;;4998044;28;20040;-66
2023/06/20 06:19:00;;;;;;;11.40;8.77;;;;;;;;;;4998271;28;20940;-66
2023/06/20 06:21:25;;;;;;;10.35;7.78;;;;;;;;;;4998626;28;20064;-65
2023/06/20 06:23:50;;;;;;;11.95;8.77;;;;;;;;;;5000360;28;20129;-65
2023/06/20 06:26:16;;;;;;;11.93;8.90;;;;;;;;;;4998623;28;20490;-65
2023/06/20 06:28:41;;;;;;;12.85;9.10;;;;;;;;;;4995184;28;20033;-65
2023/06/20 06:31:09;;;;;;;12.30;8.30;;;;;;;;;;4998687;28;20076;-65
2023/06/20 06:33:34;;;;;;;11.90;9.25;;;;;;;;;;4999013;28;20065;-65
2023/06/20 06:36:00;;;;;;;11.57;9.50;;;;;;;;;;4999039;28;20073;-70
2023/06/20 06:38:25;;;;;;;11.65;7.97;;;;;;;;;;5002593;28;20052;-71
2023/06/20 06:40:54;;;;;;;11.95;8.25;;;;;;;;;;5004417;28;20038;-70
2023/06/20 06:43:20;;;;;;;10.23;8.45;;;;;;;;;;5009789;28;20034;-65
2023/06/20 06:45:45;;;;;;;9.82;8.10;;;;;;;;;;4998910;28;20657;-65
2023/06/20 06:48:15;;;;;;;10.93;8.65;;;;;;;;;;4996948;28;20068;-66
2023/06/20 06:50:41;;;;;;;11.13;8.82;;;;;;;;;;4999406;28;20048;-66
2023/06/20 06:53:06;;;;;;;12.30;8.68;;;;;;;;;;4996924;28;20517;-65
2023/06/20 06:55:31;;;;;;;11.88;9.27;;;;;;;;;;4995019;28;20037;-64
2023/06/20 06:57:57;;;;;;;12.07;8.40;;;;;;;;;;5000203;28;20151;-66
2023/06/20 07:00:22;;;;;;;13.43;9.07;;;;;;;;;;4997152;28;20275;-65
2023/06/20 07:02:48;;;;;;;11.65;8.85;;;;;;;;;;4995506;28;20117;-65
2023/06/20 07:05:14;;;;;;;11.00;9.18;;;;;;;;;;4992904;28;20106;-66
2023/06/20 07:07:39;;;;;;;12.45;9.13;;;;;;;;;;4995906;28;20598;-65
2023/06/20 07:10:07;;;;;;;11.25;9.20;;;;;;;;;;5010802;28;20498;-67
2023/06/20 07:12:32;;;;;;;12.18;8.73;;;;;;;;;;4994859;28;20141;-65
2023/06/20 07:14:58;;;;;;;11.77;9.20;;;;;;;;;;4996141;28;20065;-65
2023/06/20 07:17:26;;;;;;;14.55;8.90;;;;;;;;;;4995644;28;20044;-65
2023/06/20 07:19:51;;;;;;;10.93;8.90;;;;;;;;;;4996855;28;20069;-65
2023/06/20 07:22:17;;;;;;;12.00;8.70;;;;;;;;;;4997698;28;20559;-65
2023/06/20 07:24:43;;;;;;;10.27;8.57;;;;;;;;;;4995739;28;20296;-67
2023/06/20 07:27:08;;;;;;;12.38;9.10;;;;;;;;;;4993732;28;20034;-65
2023/06/20 07:29:33;;;;;;;11.25;8.88;;;;;;;;;;4994954;28;20110;-64
2023/06/20 07:31:58;;;;;;;13.80;9.05;;;;;;;;;;4994545;28;20057;-65
2023/06/20 07:34:24;;;;;;;11.45;9.43;;;;;;;;;;4996145;28;20272;-65
2023/06/20 07:36:49;;;;;;;14.10;9.65;;;;;;;;;;4994876;28;20036;-66
2023/06/20 07:39:17;;;;;;;14.90;9.45;;;;;;;;;;4999773;28;20513;-66
2023/06/20 07:41:42;;;;;;;13.40;9.93;;;;;;;;;;4994436;28;20038;-65
2023/06/20 07:44:10;;;;;;;12.10;9.48;;;;;;;;;;4993595;28;20033;-66
2023/06/20 07:46:36;;;;;;;16.27;9.73;;;;;;;;;;4994455;28;20112;-67
2023/06/20 07:49:02;;;;;;;13.13;9.27;;;;;;;;;;4976945;28;20059;-64
2023/06/20 07:51:31;;;;;;;14.82;10.00;;;;;;;;;;4992820;28;20030;-65
2023/06/20 07:54:01;;;;;;;13.88;9.25;;;;;;;;;;5008448;28;20593;-65
2023/06/20 07:56:26;;;;;;;11.98;9.68;;;;;;;;;;5010007;28;20077;-65
2023/06/20 07:58:54;;;;;;;13.95;9.13;;;;;;;;;;4997876;28;20036;-63
2023/06/20 08:01:19;;;;;;;11.57;9.93;;;;;;;;;;4993106;28;20395;-64
2023/06/20 08:03:45;;;;;;;9.93;8.50;;;;;;;;;;4993502;28;20040;-64
2023/06/20 08:06:10;;;;;;;10.77;9.13;;;;;;;;;;4994479;28;20061;-64
2023/06/20 08:08:36;;;;;;;11.48;8.88;;;;;;;;;;4992968;28;20080;-66
2023/06/20 08:11:03;;;;;;;13.40;10.15;;;;;;;;;;5002554;28;21766;-64
2023/06/20 08:13:29;;;;;;;11.13;9.15;;;;;;;;;;4992584;28;20036;-64
2023/06/20 08:15:56;;;;;;;11.48;9.55;;;;;;;;;;4989147;28;20450;-64
2023/06/20 08:18:22;;;;;;;11.35;8.93;;;;;;;;;;4993717;28;20371;-63
2023/06/20 08:20:48;;;;;;;12.55;9.40;;;;;;;;;;4991241;28;20120;-64
2023/06/20 08:23:26;;;;;;;11.13;8.57;;;;;;;;;;4993647;28;20423;-64
2023/06/20 08:25:55;;;;;;;13.65;9.50;;;;;;;;;;4992105;28;20034;-65
2023/06/20 08:28:23;;;;;;;13.85;9.05;;;;;;;;;;4991967;28;20041;-63
2023/06/20 08:30:49;;;;;;;14.23;9.05;;;;;;;;;;4993579;28;20410;-66
2023/06/20 08:33:17;;;;;;;11.93;9.32;;;;;;;;;;4993897;28;20038;-64
2023/06/20 08:35:42;;;;;;;12.18;8.63;;;;;;;;;;4987980;28;20041;-64
2023/06/20 08:38:09;;;;;;;12.65;8.20;;;;;;;;;;4993167;28;20318;-65
2023/06/20 08:40:34;;;;;;;9.85;8.57;;;;;;;;;;5002181;28;20041;-64
2023/06/20 08:43:00;;;;;;;12.70;9.95;;;;;;;;;;4987888;28;20122;-65
2023/06/20 08:45:27;;;;;;;11.55;9.45;;;;;;;;;;4995412;28;20034;-65
2023/06/20 08:47:58;;;;;;;13.63;9.13;;;;;;;;;;4996140;28;20502;-67
2023/06/20 08:50:24;;;;;;;10.73;9.52;;;;;;;;;;5010847;28;20080;-64
2023/06/20 08:52:52;;;;;;;11.88;9.27;;;;;;;;;;4995575;28;20542;-67
2023/06/20 08:55:18;;;;;;;11.55;8.77;;;;;;;;;;4991866;28;20056;-66
2023/06/20 08:57:45;;;;;;;11.38;8.48;;;;;;;;;;4995729;28;20439;-65
2023/06/20 09:00:15;;;;;;;11.77;8.60;;;;;;;;;;4995155;28;22046;-65
2023/06/20 09:02:40;;;;;;;11.07;9.07;;;;;;;;;;5008321;28;20041;-65
2023/06/20 09:05:06;;;;;;;12.07;8.32;;;;;;;;;;5007564;28;20049;-64
2023/06/20 09:07:35;;;;;;;10.73;8.93;;;;;;;;;;5011067;28;20575;-65
2023/06/20 09:10:01;;;;;;;12.35;8.27;;;;;;;;;;4998049;28;20521;-66
2023/06/20 09:12:26;;;;;;;11.80;8.90;;;;;;;;;;5000627;28;20048;-66
2023/06/20 09:14:52;;;;;;;12.55;9.13;;;;;;;;;;5010537;28;20041;-65
2023/06/20 09:17:19;;;;;;;10.25;8.70;;;;;;;;;;5000481;28;20080;-65
2023/06/20 09:19:45;;;;;;;11.40;8.95;;;;;;;;;;4999125;28;20052;-65
2023/06/20 09:22:17;;;;;;;10.88;8.93;;;;;;;;;;5001430;28;20044;-66
2023/06/20 09:24:43;;;;;;;10.88;9.18;;;;;;;;;;4999568;28;20030;-65
2023/06/20 09:27:08;;;;;;;11.50;9.15;;;;;;;;;;5000540;28;20743;-65
2023/06/20 09:29:33;;;;;;;12.30;9.50;;;;;;;;;;4999526;28;20103;-65
2023/06/20 09:32:01;;;;;;;12.98;8.55;;;;;;;;;;4998859;28;20144;-64
2023/06/20 09:34:33;;;;;;;10.35;8.57;;;;;;;;;;5000643;28;20041;-65
2023/06/20 09:36:59;;;;;;;11.30;9.95;;;;;;;;;;4998195;28;20120;-63
2023/06/20 09:39:25;;;;;;;11.70;9.98;;;;;;;;;;4998347;28;20480;-66
2023/06/20 09:41:54;;;;;;;13.57;10.63;;;;;;;;;;4998873;28;20033;-65
2023/06/20 09:44:20;;;;;;;14.85;10.13;;;;;;;;;;4998473;28;20038;-63
2023/06/20 09:46:45;;;;;;;13.88;8.63;;;;;;;;;;4992995;28;21094;-65
2023/06/20 09:49:11;;;;;;;14.35;10.10;;;;;;;;;;5012273;28;20107;-65
2023/06/20 09:51:56;;;;;;;10.85;8.82;;;;;;;;;;4997310;28;20084;-64
2023/06/20 09:54:42;;;;;;;16.15;11.55;;;;;;;;;;4999055;28;20606;-65
2023/06/20 09:57:10;;;;;;;14.32;10.43;;;;;;;;;;4997823;28;20033;-65
2023/06/20 09:59:38;;;;;;;19.00;12.60;;;;;;;;;;4998718;28;20174;-64
2023/06/20 10:02:07;;;;;;;15.48;11.00;;;;;;;;;;4997247;28;20463;-66
2023/06/20 10:04:39;;;;;;;14.45;12.95;;;;;;;;;;4997908;28;20030;-65
2023/06/20 10:07:07;;;;;;;17.00;11.85;;;;;;;;;;4999331;28;20091;-65
2023/06/20 10:09:36;;;;;;;15.98;11.10;;;;;;;;;;4996944;28;20107;-66
2023/06/20 10:12:01;;;;;;;13.13;11.48;;;;;;;;;;5009540;28;20037;-65
2023/06/20 10:14:27;;;;;;;13.85;10.27;;;;;;;;;;5007243;28;20649;-66
2023/06/20 10:16:52;;;;;;;16.35;11.52;;;;;;;;;;4997898;28;20041;-64
2023/06/20 10:19:18;;;;;;;16.35;12.80;;;;;;;;;;4997339;28;20041;-65
2023/06/20 10:21:53;;;;;;;14.27;11.23;;;;;;;;;;4997173;28;20034;-64
2023/06/20 10:24:19;;;;;;;15.27;12.05;;;;;;;;;;4996732;28;20029;-65
2023/06/20 10:26:45;;;;;;;15.05;12.40;;;;;;;;;;4999449;28;20045;-64
2023/06/20 10:29:10;;;;;;;17.27;11.85;;;;;;;;;;4996636;28;20037;-64
2023/06/20 10:31:55;;;;;;;16.50;11.70;;;;;;;;;;4998623;28;20072;-64
2023/06/20 10:34:27;;;;;;;16.08;13.23;;;;;;;;;;4997744;28;20030;-65
2023/06/20 10:36:53;;;;;;;17.75;12.60;;;;;;;;;;4996644;28;20037;-65
2023/06/20 10:39:18;;;;;;;13.10;10.98;;;;;;;;;;4995675;28;20037;-64
2023/06/20 10:41:46;;;;;;;15.15;10.82;;;;;;;;;;4997579;28;20042;-66
2023/06/20 10:44:27;;;;;;;12.73;11.25;;;;;;;;;;4997579;28;20030;-64
2023/06/20 10:46:52;;;;;;;14.68;10.77;;;;;;;;;;5006907;28;20037;-64
2023/06/20 10:49:17;;;;;;;16.45;10.48;;;;;;;;;;5013208;28;20092;-64
2023/06/20 10:51:43;;;;;;;13.77;11.68;;;;;;;;;;4997358;28;20037;-65
2023/06/20 10:54:12;;;;;;;12.52;9.63;;;;;;;;;;4999509;28;20029;-65
2023/06/20 10:56:37;;;;;;;12.50;9.40;;;;;;;;;;4996563;28;20192;-65
2023/06/20 10:59:09;;;;;;;14.10;10.80;;;;;;;;;;4997285;28;20038;-63
2023/06/20 11:01:34;;;;;;;11.88;9.45;;;;;;;;;;4997723;28;20481;-64
2023/06/20 11:04:01;;;;;;;13.23;10.40;;;;;;;;;;4997885;28;20034;-64
2023/06/20 11:06:30;;;;;;;14.50;9.38;;;;;;;;;;5011071;28;20038;-64
2023/06/20 11:08:56;;;;;;;21.42;10.82;;;;;;;;;;4995684;28;20030;-64
2023/06/20 11:11:34;;;;;;;16.08;12.52;;;;;;;;;;4996720;28;20068;-67
2023/06/20 11:14:09;;;;;;;17.17;11.15;;;;;;;;;;4997907;28;20863;-65
2023/06/20 11:16:35;;;;;;;16.85;11.15;;;;;;;;;;4995409;28;20091;-66
2023/06/20 11:19:00;;;;;;;13.60;10.82;;;;;;;;;;4997011;28;20036;-65
2023/06/20 11:21:26;;;;;;;13.23;10.63;;;;;;;;;;4995413;28;20122;-66
2023/06/20 11:23:59;;;;;;;16.48;11.65;;;;;;;;;;4997070;28;20528;-64
2023/06/20 11:26:32;;;;;;;20.70;11.57;;;;;;;;;;5007297;28;20033;-67
2023/06/20 11:29:00;;;;;;;13.23;10.02;;;;;;;;;;4996686;28;20497;-65
2023/06/20 11:31:29;;;;;;;14.30;9.27;;;;;;;;;;4995317;28;20052;-64
2023/06/20 11:34:07;;;;;;;13.00;10.10;;;;;;;;;;4996209;28;20084;-63
2023/06/20 11:36:36;;;;;;;9.05;6.82;;;;;;;;;;4990400;28;20037;-66
2023/06/20 11:39:09;;;;;;;11.05;6.78;;;;;;;;;;4994663;28;20041;-64
2023/06/20 11:41:37;;;;;;;10.43;6.32;;;;;;;;;;5007491;28;20084;-64
2023/06/20 11:44:04;;;;;;;7.00;6.13;;;;;;;;;;4996259;28;20363;-67
2023/06/20 11:46:29;;;;;;;11.80;6.10;;;;;;;;;;4996400;28;20033;-65
2023/06/20 11:48:58;;;;;;;7.03;4.90;;;;;;;;;;4996621;28;20516;-64
2023/06/20 11:51:26;;;;;;;10.35;5.68;;;;;;;;;;4994171;28;20096;-65
2023/06/20 11:54:07;;;;;;;10.98;6.13;;;;;;;;;;4996455;28;20061;-65
2023/06/20 11:56:32;;;;;;;8.20;5.60;;;;;;;;;;4996934;28;20030;-65
2023/06/20 11:58:58;;;;;;;9.35;5.18;;;;;;;;;;4996733;28;20375;-67
2023/06/20 12:01:24;;;;;;;10.27;6.20;;;;;;;;;;4996017;28;20053;-66
2023/06/20 12:04:03;;;;;;;9.52;6.30;;;;;;;;;;4995884;28;20150;-65
2023/06/20 12:06:32;;;;;;;7.40;5.90;;;;;;;;;;4999240;28;20041;-65
2023/06/20 12:08:59;;;;;;;11.43;5.50;;;;;;;;;;4999323;28;20041;-65
2023/06/20 12:11:25;;;;;;;9.65;6.03;;;;;;;;;;4995754;28;20483;-64
2023/06/20 12:13:52;;;;;;;8.30;6.13;;;;;;;;;;4997117;28;20560;-64
2023/06/20 12:16:20;;;;;;;17.67;6.13;;;;;;;;;;4995985;28;20037;-66
2023/06/20 12:18:46;;;;;;;6.97;4.80;;;;;;;;;;5005699;28;20510;-64
2023/06/20 12:21:14;;;;;;;8.10;4.80;;;;;;;;;;5006073;28;20165;-65
2023/06/20 12:23:40;;;;;;;7.85;4.45;;;;;;;;;;4995179;28;20029;-65
2023/06/20 12:26:06;;;;;;;9.07;4.88;;;;;;;;;;4994266;28;20037;-64
2023/06/20 12:28:35;;;;;;;7.45;4.60;;;;;;;;;;4993425;28;20080;-64
2023/06/20 12:31:01;;;;;;;7.65;4.55;;;;;;;;;;4994205;28;20045;-64
2023/06/20 12:33:26;;;;;;;8.18;4.65;;;;;;;;;;4994734;28;20512;-64
2023/06/20 12:35:54;;;;;;;10.85;4.53;;;;;;;;;;4995736;28;20576;-69
2023/06/20 12:38:19;;;;;;;8.05;5.65;;;;;;;;;;5000310;28;20033;-65
2023/06/20 12:40:44;;;;;;;6.65;5.28;;;;;;;;;;5002263;28;20095;-69
2023/06/20 12:43:10;;;;;;;8.10;5.00;;;;;;;;;;5001619;28;20057;-69
2023/06/20 12:45:36;;;;;;;9.13;5.05;;;;;;;;;;5013545;28;20112;-71
2023/06/20 12:48:01;;;;;;;6.10;5.15;;;;;;;;;;5009050;28;20034;-71
2023/06/20 12:50:27;;;;;;;8.45;5.05;;;;;;;;;;5003208;28;20069;-69
2023/06/20 12:52:52;;;;;;;7.15;5.65;;;;;;;;;;5002558;28;20044;-70
2023/06/20 12:55:17;;;;;;;9.20;5.47;;;;;;;;;;5005155;28;20034;-70
2023/06/20 12:57:42;;;;;;;13.05;7.13;;;;;;;;;;5003505;28;20034;-69
2023/06/20 13:00:09;;;;;;;7.38;6.50;;;;;;;;;;5011996;28;20065;-68
2023/06/20 13:02:35;;;;;;;7.35;5.78;;;;;;;;;;5018880;28;20548;-71
2023/06/20 13:05:01;;;;;;;8.25;6.50;;;;;;;;;;5003217;28;20509;-69
2023/06/20 13:07:28;;;;;;;8.75;6.10;;;;;;;;;;5000541;28;20049;-70
2023/06/20 13:09:54;;;;;;;8.65;6.30;;;;;;;;;;5001273;28;20068;-69
2023/06/20 13:12:19;;;;;;;9.55;7.15;;;;;;;;;;5003929;28;20498;-68
2023/06/20 13:14:45;;;;;;;7.82;6.90;;;;;;;;;;4999358;28;20084;-71
2023/06/20 13:17:11;;;;;;;9.30;6.72;;;;;;;;;;4999906;28;20541;-72
2023/06/20 13:19:36;;;;;;;9.07;7.03;;;;;;;;;;4998389;28;20041;-70
2023/06/20 13:22:02;;;;;;;13.25;6.97;;;;;;;;;;4999814;28;20121;-70
2023/06/20 13:24:27;;;;;;;8.68;6.65;;;;;;;;;;5001991;28;20037;-71
2023/06/20 13:26:53;;;;;;;7.88;6.25;;;;;;;;;;5001902;28;20040;-70
2023/06/20 13:29:18;;;;;;;6.93;5.78;;;;;;;;;;5004067;28;20645;-70
2023/06/20 13:31:43;;;;;;;9.85;5.63;;;;;;;;;;5003589;28;20033;-72
2023/06/20 13:34:08;;;;;;;7.00;5.57;;;;;;;;;;5002244;28;20609;-74
2023/06/20 13:36:34;;;;;;;7.13;5.82;;;;;;;;;;5000390;28;20268;-70
2023/06/20 13:39:00;;;;;;;7.05;5.50;;;;;;;;;;4999739;28;20347;-69
2023/06/20 13:41:25;;;;;;;7.65;5.05;;;;;;;;;;5009590;28;20037;-70
2023/06/20 13:43:51;;;;;;;7.40;4.80;;;;;;;;;;4998069;28;20488;-69
2023/06/20 13:46:17;;;;;;;5.32;4.50;;;;;;;;;;4995132;28;20037;-69
2023/06/20 13:48:42;;;;;;;9.15;4.40;;;;;;;;;;4994628;28;20037;-68
2023/06/20 13:51:07;;;;;;;6.35;4.78;;;;;;;;;;5006570;28;20133;-68
2023/06/20 13:53:34;;;;;;;6.70;4.22;;;;;;;;;;4997012;28;25294;-69
2023/06/20 13:56:00;;;;;;;6.03;4.20;;;;;;;;;;5011246;28;21815;-69
2023/06/20 13:58:25;;;;;;;5.47;4.43;;;;;;;;;;4996242;28;20603;-70
2023/06/20 14:00:53;;;;;;;6.05;4.28;;;;;;;;;;4993982;28;20037;-69
2023/06/20 14:03:18;;;;;;;5.45;4.30;;;;;;;;;;4999243;28;20505;-69
2023/06/20 14:05:43;;;;;;;7.20;4.90;;;;;;;;;;4996217;28;20037;-69
2023/06/20 14:08:11;;;;;;;4.93;4.22;;;;;;;;;;5006401;28;20041;-71
2023/06/20 14:10:36;;;;;;;9.57;4.47;;;;;;;;;;5006898;28;20513;-70
2023/06/20 14:13:02;;;;;;;5.47;4.55;;;;;;;;;;4994668;28;20036;-70
2023/06/20 14:15:27;;;;;;;9.73;4.20;;;;;;;;;;4994910;28;20034;-68
2023/06/20 14:17:55;;;;;;;6.38;4.40;;;;;;;;;;4994974;28;20034;-67
2023/06/20 14:20:22;;;;;;;6.85;4.70;;;;;;;;;;4996577;28;20039;-67
2023/06/20 14:22:48;;;;;;;5.78;4.57;;;;;;;;;;4992325;28;20342;-67
2023/06/20 14:25:13;;;;;;;7.32;4.43;;;;;;;;;;4995989;28;20029;-68
2023/06/20 14:27:38;;;;;;;6.32;4.30;;;;;;;;;;4995728;28;20056;-69
2023/06/20 14:30:04;;;;;;;4.47;4.00;;;;;;;;;;4994140;28;20037;-68